Time;durP1;ratioP1;P1;durP2;ratioP2;P2;SDS_P1;SDS_P2;PMS_P1;PMS_P2;Temp;Humidity;BMP_temperature;BMP_pressure;BME280_temperature;BME280_humidity;BME280_pressure;Samples;Min_cycle;Max_cycle;Signal;HPM_P1;HPM_P2
2023/08/17 04:13:44;;;;;;;3.97;2.75;;;;;;;18.92;100.00;100519.13;5558852;32;179164;-89
2023/08/17 04:16:48;;;;;;;3.35;2.60;;;;;;;18.88;100.00;100518.53;5545049;32;33483;-89
2023/08/17 04:19:52;;;;;;;2.78;2.50;;;;;;;18.88;100.00;100523.03;5552930;32;33580;-86
2023/08/17 04:22:54;;;;;;;3.20;2.70;;;;;;;18.86;100.00;100531.25;5549758;32;34499;-87
2023/08/17 04:25:57;;;;;;;3.25;2.55;;;;;;;18.87;100.00;100530.28;5545903;32;33779;-87
2023/08/17 04:29:02;;;;;;;2.72;2.47;;;;;;;18.94;100.00;100536.84;5546628;32;33873;-87
2023/08/17 04:32:05;;;;;;;3.00;2.60;;;;;;;19.12;100.00;100549.78;5547474;32;33804;-88
2023/08/17 04:35:08;;;;;;;2.80;2.60;;;;;;;19.19;100.00;100545.59;5545897;32;34095;-87
2023/08/17 04:38:11;;;;;;;3.50;2.60;;;;;;;19.14;100.00;100537.03;5549982;32;34456;-88
2023/08/17 04:41:14;;;;;;;3.72;3.10;;;;;;;19.12;100.00;100550.59;5549887;32;33875;-88
2023/08/17 04:44:17;;;;;;;3.22;2.80;;;;;;;19.15;100.00;100551.34;5545857;32;33485;-88
2023/08/17 04:47:20;;;;;;;3.70;2.75;;;;;;;19.13;100.00;100552.31;5546323;32;34387;-88
2023/08/17 04:50:23;;;;;;;4.15;3.03;;;;;;;19.12;100.00;100550.59;5546945;32;34402;-88
2023/08/17 04:53:28;;;;;;;3.05;2.72;;;;;;;19.20;100.00;100551.78;5546964;32;32140;-87
2023/08/17 04:56:30;;;;;;;3.05;2.58;;;;;;;19.37;100.00;100550.41;5551540;32;34332;-88
2023/08/17 04:59:33;;;;;;;3.53;2.97;;;;;;;19.37;100.00;100551.22;5560958;32;34015;-88
2023/08/17 05:02:36;;;;;;;3.62;2.67;;;;;;;19.46;100.00;100554.97;5558566;32;34635;-88
2023/08/17 05:05:39;;;;;;;3.95;2.45;;;;;;;19.60;100.00;100553.81;5557510;32;32469;-87
2023/08/17 05:08:42;;;;;;;2.60;2.40;;;;;;;19.77;100.00;100540.75;5555670;32;34028;-88
2023/08/17 05:11:45;;;;;;;3.42;2.80;;;;;;;19.75;100.00;100546.25;5546530;32;34551;-88
2023/08/17 05:14:48;;;;;;;2.62;2.42;;;;;;;19.87;100.00;100547.03;5545324;32;33910;-89
2023/08/17 05:17:51;;;;;;;3.25;2.92;;;;;;;19.96;100.00;100553.50;5544666;32;34473;-87
2023/08/17 05:20:54;;;;;;;3.78;3.05;;;;;;;20.13;100.00;100554.72;5545706;32;34807;-92
2023/08/17 05:23:57;;;;;;;3.47;2.55;;;;;;;20.49;100.00;100561.50;5536879;32;34243;-93
2023/08/17 05:27:00;;;;;;;3.10;2.62;;;;;;;20.71;100.00;100555.91;5532016;32;33811;-92
2023/08/17 05:30:04;;;;;;;3.40;2.67;;;;;;;21.10;100.00;100560.53;5531604;32;33824;-90
2023/08/17 05:33:07;;;;;;;3.25;2.80;;;;;;;21.54;100.00;100553.84;5531525;32;34425;-89
2023/08/17 05:36:10;;;;;;;3.55;2.87;;;;;;;21.86;100.00;100558.09;5531878;32;33805;-87
2023/08/17 05:39:13;;;;;;;3.75;3.10;;;;;;;22.28;100.00;100559.50;5533966;32;33820;-87
2023/08/17 05:42:16;;;;;;;3.53;2.72;;;;;;;22.72;100.00;100556.19;5533393;32;34528;-87
2023/08/17 05:45:19;;;;;;;3.53;3.05;;;;;;;23.15;100.00;100566.44;5530535;32;34517;-88
2023/08/17 05:48:22;;;;;;;3.33;2.90;;;;;;;23.39;100.00;100570.41;5530747;32;34266;-88
2023/08/17 05:51:25;;;;;;;2.92;2.62;;;;;;;23.41;100.00;100573.78;5530455;32;33819;-88
2023/08/17 05:54:28;;;;;;;3.17;2.67;;;;;;;23.69;100.00;100571.81;5530389;32;33324;-88
2023/08/17 05:57:30;;;;;;;4.03;3.25;;;;;;;23.79;100.00;100569.00;5532687;32;34434;-88
2023/08/17 06:00:33;;;;;;;3.17;2.87;;;;;;;23.75;100.00;100564.06;5531956;32;33593;-88
2023/08/17 06:03:37;;;;;;;3.92;3.28;;;;;;;23.69;100.00;100571.81;5549904;32;34512;-88
2023/08/17 06:06:40;;;;;;;2.60;2.40;;;;;;;23.76;100.00;100568.47;5549530;32;33693;-88
2023/08/17 06:09:43;;;;;;;4.32;2.87;;;;;;;24.28;100.00;100564.91;5550042;32;33762;-87
2023/08/17 06:12:46;;;;;;;3.30;2.72;;;;;;;24.85;100.00;100557.19;5552084;32;33424;-87
2023/08/17 06:15:49;;;;;;;3.37;3.08;;;;;;;26.02;100.00;100564.34;5550111;32;34347;-89
2023/08/17 06:18:51;;;;;;;2.95;2.65;;;;;;;26.40;100.00;100558.25;5550545;32;34463;-86
2023/08/17 06:21:54;;;;;;;4.07;2.60;;;;;;;25.87;100.00;100558.75;5550555;32;34484;-85
2023/08/17 06:24:57;;;;;;;2.70;2.37;;;;;;;26.02;100.00;100558.03;5551771;32;34750;-84
2023/08/17 06:28:01;;;;;;;2.83;2.50;;;;;;;25.73;100.00;100565.72;5553726;32;34742;-86
2023/08/17 06:31:03;;;;;;;2.30;2.17;;;;;;;25.51;100.00;100562.69;5551245;32;33999;-88
2023/08/17 06:34:07;;;;;;;3.30;3.00;;;;;;;25.48;100.00;100554.03;5600344;26;33709;-87
2023/08/17 06:37:09;;;;;;;2.72;2.50;;;;;;;24.99;100.00;100556.53;5548984;32;33723;-88
2023/08/17 06:40:12;;;;;;;5.18;2.67;;;;;;;24.92;100.00;100555.50;5550387;32;34434;-87
2023/08/17 06:43:15;;;;;;;3.00;2.70;;;;;;;25.04;100.00;100553.31;5549885;32;33513;-89
2023/08/17 06:46:20;;;;;;;3.72;2.60;;;;;;;24.92;100.00;100547.38;5550582;32;34004;-89
2023/08/17 06:49:23;;;;;;;4.00;2.53;;;;;;;25.10;100.00;100536.34;5549837;32;34517;-87
2023/08/17 06:52:26;;;;;;;3.45;2.55;;;;;;;25.48;100.00;100538.56;5550482;32;34615;-87
2023/08/17 06:55:29;;;;;;;2.55;2.12;;;;;;;25.74;100.00;100532.09;5551690;32;34127;-87
2023/08/17 06:58:32;;;;;;;3.28;2.97;;;;;;;25.33;100.00;100538.41;5551064;32;33803;-88
2023/08/17 07:01:34;;;;;;;2.42;2.20;;;;;;;25.42;100.00;100539.25;5550194;32;34389;-88
2023/08/17 07:04:37;;;;;;;2.40;2.20;;;;;;;25.28;100.00;100547.06;5548420;32;33972;-87
2023/08/17 07:07:40;;;;;;;2.55;2.35;;;;;;;25.14;100.00;100553.16;5549269;32;33894;-88
2023/08/17 07:10:43;;;;;;;2.62;2.42;;;;;;;25.10;100.00;100549.09;5549387;32;33832;-87
2023/08/17 07:13:45;;;;;;;2.97;2.47;;;;;;;25.11;100.00;100543.50;5554177;32;34542;-86
2023/08/17 07:16:49;;;;;;;2.50;2.30;;;;;;;25.27;100.00;100552.66;5549913;32;34467;-86
2023/08/17 07:19:51;;;;;;;2.80;2.50;;;;;;;25.51;100.00;100548.25;5549615;32;33687;-86
2023/08/17 07:23:15;;;;;;;2.15;1.95;;;;;;;25.58;100.00;100562.03;5549188;32;33731;-85
2023/08/17 07:26:18;;;;;;;3.00;2.50;;;;;;;25.16;100.00;100561.97;5549401;32;33804;-85
2023/08/17 07:29:21;;;;;;;3.17;2.70;;;;;;;24.72;100.00;100555.78;5549296;32;33686;-85
2023/08/17 07:32:25;;;;;;;2.72;2.37;;;;;;;24.45;100.00;100559.56;5549452;32;34555;-89
2023/08/17 07:35:28;;;;;;;3.30;2.20;;;;;;;24.40;100.00;100560.06;5537714;32;33908;-89
2023/08/17 07:38:31;;;;;;;2.83;2.42;;;;;;;24.45;100.00;100554.97;5549008;32;34218;-90
2023/08/17 07:41:34;;;;;;;2.60;2.25;;;;;;;24.52;100.00;100551.63;5550919;32;33976;-86
2023/08/17 07:44:38;;;;;;;4.10;2.85;;;;;;;24.31;100.00;100545.63;5550226;32;33419;-85
2023/08/17 07:47:41;;;;;;;2.80;2.58;;;;;;;24.40;100.00;100551.94;5549454;32;33366;-86
2023/08/17 07:50:49;;;;;;;2.03;1.90;;;;;;;24.38;100.00;100553.09;5548340;32;33587;-87
2023/08/17 07:53:51;;;;;;;2.20;2.03;;;;;;;24.54;100.00;100553.16;5548924;32;33550;-87
2023/08/17 07:56:54;;;;;;;2.85;2.25;;;;;;;24.70;100.00;100546.97;5550940;32;33875;-85
2023/08/17 07:59:57;;;;;;;2.62;2.40;;;;;;;24.93;100.00;100551.78;5552898;32;33914;-87
2023/08/17 08:02:59;;;;;;;2.70;2.28;;;;;;;25.16;100.00;100549.25;5552521;32;33614;-86
2023/08/17 08:06:02;;;;;;;3.42;2.50;;;;;;;25.23;100.00;100545.84;5548815;32;33616;-86
2023/08/17 08:09:06;;;;;;;2.60;2.33;;;;;;;25.50;100.00;100547.38;5548667;32;33763;-86
2023/08/17 08:12:09;;;;;;;2.17;2.03;;;;;;;25.93;100.00;100549.06;5549272;32;33498;-88
2023/08/17 08:15:11;;;;;;;2.33;2.10;;;;;;;26.60;100.00;100550.53;5548555;32;34678;-86
2023/08/17 08:18:14;;;;;;;2.03;1.90;;;;;;;27.43;100.00;100554.59;5547958;32;33948;-86
2023/08/17 08:21:17;;;;;;;3.78;2.40;;;;;;;28.48;100.00;100549.25;5547727;32;34292;-86
2023/08/17 08:24:20;;;;;;;1.95;1.70;;;;;;;29.40;90.56;100548.75;5548207;32;33814;-86
2023/08/17 08:27:39;;;;;;;2.22;1.98;;;;;;;28.87;89.31;100546.38;5549215;32;34113;-86
2023/08/17 08:30:42;;;;;;;2.10;1.95;;;;;;;28.83;80.69;100539.56;5548500;32;33980;-87
2023/08/17 08:33:45;;;;;;;2.03;1.85;;;;;;;29.18;83.20;100537.00;5547925;32;33463;-87
2023/08/17 08:36:48;;;;;;;1.77;1.67;;;;;;;29.66;79.84;100536.38;5548366;32;34203;-88
2023/08/17 08:39:52;;;;;;;1.50;1.40;;;;;;;29.77;71.22;100539.59;5547422;32;33510;-87
2023/08/17 08:42:58;;;;;;;1.85;1.40;;;;;;;30.32;67.93;100542.47;5548086;32;33724;-85
2023/08/17 08:46:01;;;;;;;1.50;1.40;;;;;;;30.49;62.58;100537.50;5547608;32;34012;-85
2023/08/17 08:49:06;;;;;;;1.77;1.67;;;;;;;30.38;59.82;100541.63;5547486;32;33919;-86
2023/08/17 08:52:19;;;;;;;1.40;1.30;;;;;;;30.61;59.80;100540.47;5547039;32;34049;-86
2023/08/17 08:55:27;;;;;;;1.90;1.35;;;;;;;30.95;59.21;100539.72;5547412;32;33927;-86
2023/08/17 08:58:30;;;;;;;1.35;1.25;;;;;;;30.02;60.28;100537.25;5548881;32;34972;-86
2023/08/17 09:01:35;;;;;;;1.52;1.42;;;;;;;29.48;62.78;100536.03;5550997;32;33694;-86
2023/08/17 09:04:38;;;;;;;1.23;1.17;;;;;;;29.31;60.71;100545.31;5550186;32;33897;-86
2023/08/17 09:07:42;;;;;;;1.87;1.77;;;;;;;29.04;62.31;100536.88;5550870;32;33839;-85
2023/08/17 09:10:45;;;;;;;1.98;1.77;;;;;;;28.84;62.20;100542.09;5550191;32;33579;-87
2023/08/17 09:13:48;;;;;;;1.65;1.55;;;;;;;28.33;66.51;100529.34;5550251;32;34677;-86
2023/08/17 09:16:58;;;;;;;1.30;1.20;;;;;;;27.89;67.60;100534.59;5550570;32;33793;-86
2023/08/17 09:20:03;;;;;;;2.12;1.70;;;;;;;27.40;69.00;100527.75;5551536;32;34114;-89
2023/08/17 09:23:14;;;;;;;1.95;1.35;;;;;;;27.38;70.51;100537.94;5552504;32;33467;-89
2023/08/17 09:26:19;;;;;;;2.22;1.65;;;;;;;26.99;70.41;100524.31;5551895;32;34390;-86
2023/08/17 09:29:22;;;;;;;1.70;1.60;;;;;;;26.84;70.47;100521.47;5550516;32;33980;-86
2023/08/17 09:32:30;;;;;;;1.33;1.15;;;;;;;26.62;71.23;100518.56;5550203;32;34323;-87
2023/08/17 09:35:33;;;;;;;1.40;1.30;;;;;;;26.50;71.60;100520.84;5550098;32;33820;-86
2023/08/17 09:38:38;;;;;;;1.40;1.30;;;;;;;26.42;72.14;100518.16;5551010;32;33715;-86
2023/08/17 09:41:41;;;;;;;1.85;1.48;;;;;;;26.73;71.82;100511.00;5551303;32;33906;-86
2023/08/17 09:44:45;;;;;;;1.17;1.10;;;;;;;27.46;68.01;100516.09;5551013;32;34039;-86
2023/08/17 09:47:48;;;;;;;1.98;1.75;;;;;;;28.34;65.15;100511.94;5553524;32;34523;-86
2023/08/17 09:50:51;;;;;;;1.60;1.50;;;;;;;28.52;64.67;100508.81;5552906;32;34256;-86
2023/08/17 09:53:54;;;;;;;2.45;1.77;;;;;;;29.04;62.77;100500.53;5561792;32;35165;-86
2023/08/17 09:57:03;;;;;;;1.65;1.50;;;;;;;29.31;59.59;100498.88;5557110;32;34238;-89
2023/08/17 10:00:07;;;;;;;1.60;1.50;;;;;;;29.28;61.97;100501.16;5559344;32;34120;-88
2023/08/17 10:03:10;;;;;;;1.60;1.48;;;;;;;29.16;59.75;100496.22;5566004;32;34223;-87
2023/08/17 10:06:20;;;;;;;2.53;1.52;;;;;;;29.09;62.29;100489.88;5565149;32;34014;-87
2023/08/17 10:09:37;;;;;;;1.60;1.50;;;;;;;29.28;62.22;100493.84;5553516;32;34104;-87
2023/08/17 10:12:47;;;;;;;1.80;1.60;;;;;;;29.80;60.35;100496.31;5550528;32;34340;-87
2023/08/17 10:15:52;;;;;;;2.28;1.80;;;;;;;29.61;61.49;100495.13;5553227;32;33608;-87
2023/08/17 10:19:09;;;;;;;1.92;1.73;;;;;;;29.36;62.03;100489.25;5550888;32;34805;-87
2023/08/17 10:22:21;;;;;;;2.25;2.05;;;;;;;28.68;63.38;100502.25;5550176;32;34466;-87
2023/08/17 10:25:27;;;;;;;1.87;1.67;;;;;;;28.00;65.75;100507.91;5550956;32;33976;-87
2023/08/17 10:28:32;;;;;;;1.83;1.73;;;;;;;27.92;66.80;100500.66;5538534;32;34532;-86
2023/08/17 10:31:35;;;;;;;1.80;1.60;;;;;;;27.74;66.87;100501.06;5551470;32;33975;-86
2023/08/17 10:34:39;;;;;;;1.65;1.55;;;;;;;27.52;68.24;100499.03;5549044;32;33683;-86
2023/08/17 10:37:43;;;;;;;1.70;1.45;;;;;;;27.52;66.87;100493.56;5550313;32;33943;-88
2023/08/17 10:41:09;;;;;;;1.50;1.40;;;;;;;27.49;66.39;100493.09;5550411;32;34243;-92
2023/08/17 10:44:12;;;;;;;1.80;1.70;;;;;;;27.42;67.03;100491.13;5550780;32;33827;-87
2023/08/17 10:47:25;;;;;;;1.77;1.20;;;;;;;27.60;65.12;100495.38;5553095;32;34149;-86
2023/08/17 10:50:28;;;;;;;2.60;1.23;;;;;;;27.45;66.63;100498.91;5549717;32;34922;-87
2023/08/17 10:53:35;;;;;;;1.50;1.40;;;;;;;27.78;67.13;100495.03;5549738;32;33887;-86
2023/08/17 10:56:40;;;;;;;1.65;1.50;;;;;;;27.89;66.59;100503.75;5550136;32;33487;-86
2023/08/17 10:59:43;;;;;;;1.85;1.42;;;;;;;27.93;66.04;100497.75;5549496;32;33433;-87
2023/08/17 11:02:59;;;;;;;1.58;1.48;;;;;;;28.01;63.78;100493.25;5549221;32;33323;-86
2023/08/17 11:06:17;;;;;;;1.77;1.50;;;;;;;27.69;64.21;100496.12;5548980;32;33558;-86
2023/08/17 11:09:22;;;;;;;1.58;1.48;;;;;;;27.74;64.10;100492.88;5549358;32;34898;-86
2023/08/17 11:12:25;;;;;;;1.50;1.40;;;;;;;27.90;64.12;100494.56;5551250;32;33924;-86
2023/08/17 11:15:44;;;;;;;1.85;1.60;;;;;;;27.67;63.66;100498.22;5551825;32;35220;-85
2023/08/17 11:18:48;;;;;;;1.48;1.37;;;;;;;27.41;65.46;100499.47;5548442;32;34589;-87
2023/08/17 11:21:53;;;;;;;1.17;1.08;;;;;;;27.81;64.83;100502.00;5548226;32;34246;-87
2023/08/17 11:24:57;;;;;;;1.42;1.33;;;;;;;27.36;65.13;100491.84;5549117;32;34527;-87
2023/08/17 11:28:01;;;;;;;1.40;1.30;;;;;;;27.42;66.42;100490.25;5549712;32;33961;-87
2023/08/17 11:31:10;;;;;;;1.67;1.50;;;;;;;27.55;66.34;100495.91;5550463;32;33805;-86
2023/08/17 11:34:16;;;;;;;1.50;1.40;;;;;;;27.69;68.08;100488.81;5551362;32;33725;-87
2023/08/17 11:37:20;;;;;;;1.92;1.75;;;;;;;27.73;66.02;100489.28;5557262;32;34144;-87
2023/08/17 11:40:26;;;;;;;1.60;1.50;;;;;;;27.71;65.63;100494.09;5563374;32;35239;-87
2023/08/17 11:43:29;;;;;;;1.80;1.40;;;;;;;27.77;66.80;100493.34;5564747;32;34024;-87
2023/08/17 11:46:32;;;;;;;1.65;1.55;;;;;;;27.61;67.07;100488.91;5557388;32;35891;-91
2023/08/17 11:49:35;;;;;;;1.67;1.58;;;;;;;27.64;67.04;100487.66;5551224;32;33776;-92
2023/08/17 11:52:41;;;;;;;1.85;1.75;;;;;;;27.87;65.53;100489.47;5549089;32;33695;-87
2023/08/17 11:55:48;;;;;;;1.77;1.50;;;;;;;27.75;65.54;100489.94;5549002;32;34120;-87
2023/08/17 11:58:57;;;;;;;1.15;1.05;;;;;;;27.83;67.18;100494.47;5549849;32;34601;-87
2023/08/17 12:02:03;;;;;;;2.30;1.50;;;;;;;27.52;71.26;100482.69;5549694;32;33926;-87
2023/08/17 12:05:07;;;;;;;1.67;1.58;;;;;;;27.62;68.01;100482.44;5548808;32;33885;-87
2023/08/17 12:08:10;;;;;;;1.77;1.60;;;;;;;27.65;67.18;100478.50;5549386;32;33563;-87
2023/08/17 12:11:12;;;;;;;1.42;1.33;;;;;;;27.52;66.80;100470.91;5548594;32;33755;-87
2023/08/17 12:14:15;;;;;;;1.60;1.40;;;;;;;27.80;69.22;100478.50;5548686;32;33968;-87
2023/08/17 12:17:19;;;;;;;2.30;1.60;;;;;;;27.64;66.58;100474.91;5548463;32;33519;-88
2023/08/17 12:20:22;;;;;;;1.83;1.58;;;;;;;27.85;68.32;100468.72;5550200;32;33828;-87
2023/08/17 12:23:25;;;;;;;3.35;1.60;;;;;;;28.19;64.96;100468.28;5549976;32;33755;-87
2023/08/17 12:26:29;;;;;;;1.77;1.67;;;;;;;28.11;67.34;100467.37;5564330;32;35430;-87
2023/08/17 12:29:32;;;;;;;1.60;1.42;;;;;;;28.22;64.98;100465.22;5564180;32;34302;-87
2023/08/17 12:32:35;;;;;;;2.03;1.60;;;;;;;28.23;65.97;100462.31;5564735;32;34241;-87
2023/08/17 12:35:38;;;;;;;1.67;1.48;;;;;;;28.40;64.91;100461.25;5566378;32;35247;-87
2023/08/17 12:38:44;;;;;;;1.87;1.42;;;;;;;28.58;63.64;100461.66;5564413;32;35242;-87
2023/08/17 12:41:47;;;;;;;1.50;1.40;;;;;;;28.90;60.54;100456.75;5552799;32;34821;-87
2023/08/17 12:44:50;;;;;;;2.08;1.40;;;;;;;28.98;58.72;100455.75;5550265;32;33864;-88
2023/08/17 12:47:53;;;;;;;1.85;1.75;;;;;;;29.16;59.24;100446.25;5550149;32;34044;-87
2023/08/17 12:50:56;;;;;;;1.92;1.60;;;;;;;29.45;57.83;100437.00;5550495;32;33505;-88
2023/08/17 12:53:59;;;;;;;1.55;1.40;;;;;;;29.25;58.21;100442.31;5550479;32;34006;-87
2023/08/17 12:57:02;;;;;;;1.40;1.30;;;;;;;28.78;60.27;100433.72;5550407;32;33605;-87
2023/08/17 13:00:10;;;;;;;1.55;1.45;;;;;;;28.74;59.67;100426.94;5550134;32;33413;-86
2023/08/17 13:03:12;;;;;;;1.65;1.23;;;;;;;28.66;60.55;100430.66;5549876;32;33999;-87
2023/08/17 13:06:17;;;;;;;1.40;1.30;;;;;;;28.80;61.19;100426.16;5551199;32;34640;-88
2023/08/17 13:09:20;;;;;;;1.62;1.52;;;;;;;28.77;61.01;100421.94;5551357;32;33704;-87
2023/08/17 13:12:23;;;;;;;1.58;1.48;;;;;;;28.92;60.84;100424.63;5550262;32;34294;-86
2023/08/17 13:15:26;;;;;;;1.52;1.42;;;;;;;29.24;60.68;100415.19;5549936;32;33841;-86
2023/08/17 13:18:29;;;;;;;1.60;1.50;;;;;;;29.21;62.13;100413.69;5550014;32;33604;-86
2023/08/17 13:21:32;;;;;;;1.55;1.45;;;;;;;29.12;60.04;100412.19;5550321;32;34495;-86
2023/08/17 13:24:35;;;;;;;1.67;1.58;;;;;;;28.70;62.03;100407.38;5550362;32;33933;-87
2023/08/17 13:27:37;;;;;;;3.42;1.83;;;;;;;28.69;62.83;100405.72;5550215;32;33869;-87
2023/08/17 13:30:40;;;;;;;1.60;1.50;;;;;;;29.05;62.08;100404.78;5550232;32;34819;-86
2023/08/17 13:33:43;;;;;;;1.50;1.40;;;;;;;28.78;61.09;100417.34;5549572;32;34299;-86
2023/08/17 13:36:46;;;;;;;1.90;1.80;;;;;;;28.99;62.30;100407.44;5550064;32;34821;-87
2023/08/17 13:39:49;;;;;;;1.62;1.45;;;;;;;28.96;61.71;100402.41;5550432;32;33473;-87
2023/08/17 13:42:52;;;;;;;1.75;1.50;;;;;;;28.68;62.60;100397.72;5551024;32;33759;-87
2023/08/17 13:45:54;;;;;;;1.48;1.37;;;;;;;28.73;63.76;100401.56;5549648;32;33691;-86
2023/08/17 13:48:57;;;;;;;1.60;1.45;;;;;;;29.02;62.03;100390.69;5549855;32;33943;-87
2023/08/17 13:52:00;;;;;;;1.62;1.52;;;;;;;28.99;61.84;100393.78;5550830;32;33461;-89
2023/08/17 13:55:03;;;;;;;2.00;1.52;;;;;;;28.68;62.38;100393.09;5550839;32;34700;-90
2023/08/17 13:58:06;;;;;;;1.70;1.55;;;;;;;28.58;63.39;100387.97;5550289;32;33741;-90
2023/08/17 14:01:11;;;;;;;1.83;1.73;;;;;;;28.24;67.62;100392.25;5550242;32;33436;-89
2023/08/17 14:04:15;;;;;;;1.58;1.48;;;;;;;27.40;69.73;100389.66;5549817;32;33161;-88
2023/08/17 14:07:17;;;;;;;2.75;1.60;;;;;;;27.29;70.40;100390.13;5550308;32;33937;-87
2023/08/17 14:10:20;;;;;;;2.12;1.92;;;;;;;27.22;71.16;100387.31;5549854;32;34660;-88
2023/08/17 14:13:40;;;;;;;2.50;2.20;;;;;;;27.24;71.92;100389.84;5549226;32;33875;-87
2023/08/17 14:16:42;;;;;;;3.15;1.70;;;;;;;27.17;72.08;100396.03;5536014;32;34091;-87
2023/08/17 14:19:45;;;;;;;1.40;1.30;;;;;;;27.15;72.97;100398.09;5550396;32;33592;-88
2023/08/17 14:22:48;;;;;;;2.05;1.52;;;;;;;26.98;74.97;100405.59;5549455;32;33913;-88
2023/08/17 14:25:51;;;;;;;2.05;1.85;;;;;;;26.85;81.52;100397.16;5548960;32;33770;-87
2023/08/17 14:28:54;;;;;;;2.37;1.58;;;;;;;26.52;88.18;100406.44;5549315;32;33529;-86
2023/08/17 14:31:57;;;;;;;1.95;1.50;;;;;;;26.24;100.00;100388.78;5549628;32;34335;-86
2023/08/17 14:35:00;;;;;;;1.90;1.77;;;;;;;25.96;100.00;100382.97;5550587;32;33562;-86
2023/08/17 14:38:03;;;;;;;2.55;1.77;;;;;;;25.82;100.00;100385.41;5550629;32;33839;-86
2023/08/17 14:41:07;;;;;;;2.08;1.98;;;;;;;25.58;100.00;100393.66;5552223;32;33577;-86
2023/08/17 14:44:10;;;;;;;2.28;1.87;;;;;;;25.35;100.00;100388.94;5564638;32;34213;-86
2023/08/17 14:47:13;;;;;;;1.75;1.62;;;;;;;25.32;100.00;100384.69;5563692;32;33768;-84
2023/08/17 14:50:22;;;;;;;2.42;2.17;;;;;;;25.33;100.00;100393.69;5558533;32;34226;-85
2023/08/17 14:53:30;;;;;;;2.35;2.15;;;;;;;25.21;100.00;100379.63;5551814;32;33963;-85
2023/08/17 14:56:33;;;;;;;2.47;2.28;;;;;;;25.05;100.00;100380.50;5550638;32;33957;-85
2023/08/17 14:59:36;;;;;;;2.47;1.90;;;;;;;25.03;100.00;100381.53;5553755;32;33732;-85
2023/08/17 15:02:40;;;;;;;2.60;2.17;;;;;;;24.96;100.00;100380.50;5554051;32;33846;-85
2023/08/17 15:05:43;;;;;;;2.33;1.90;;;;;;;24.58;100.00;100381.00;5553185;32;33751;-85
2023/08/17 15:08:45;;;;;;;2.30;2.10;;;;;;;24.16;100.00;100371.09;5554108;32;34838;-85
2023/08/17 15:11:50;;;;;;;2.37;2.10;;;;;;;23.54;100.00;100371.19;5556826;32;34305;-85
2023/08/17 15:14:53;;;;;;;2.25;1.90;;;;;;;23.28;100.00;100371.22;5561224;32;35208;-85
2023/08/17 15:17:56;;;;;;;1.85;1.75;;;;;;;23.09;100.00;100372.25;5551356;32;33700;-85
2023/08/17 15:20:58;;;;;;;2.25;2.05;;;;;;;22.92;100.00;100374.84;5552240;32;33821;-85
2023/08/17 15:24:01;;;;;;;2.72;2.05;;;;;;;22.75;100.00;100371.16;5552233;32;33680;-85
2023/08/17 15:27:05;;;;;;;2.50;2.30;;;;;;;22.70;100.00;100363.53;5551647;32;34386;-85
2023/08/17 15:30:08;;;;;;;1.80;1.70;;;;;;;22.70;100.00;100371.66;5551153;32;34227;-86
2023/08/17 15:33:10;;;;;;;2.70;1.98;;;;;;;22.72;100.00;100377.75;5551655;32;33885;-85
2023/08/17 15:36:13;;;;;;;1.60;1.50;;;;;;;22.64;100.00;100376.81;5552309;32;33844;-85
2023/08/17 15:39:16;;;;;;;2.58;2.28;;;;;;;22.64;100.00;100369.56;5551236;32;34077;-88
2023/08/17 15:42:19;;;;;;;2.12;1.92;;;;;;;22.73;100.00;100370.50;5550535;32;33714;-85
2023/08/17 15:45:22;;;;;;;2.67;2.12;;;;;;;22.81;100.00;100370.53;5550947;32;34387;-86
2023/08/17 15:48:25;;;;;;;3.67;2.33;;;;;;;22.78;100.00;100367.31;5551283;32;34137;-85
2023/08/17 15:51:27;;;;;;;2.20;2.00;;;;;;;22.78;100.00;100370.00;5551243;32;33639;-86
